Time;durP1;ratioP1;P1;durP2;ratioP2;P2;SDS_P1;SDS_P2;PMS_P1;PMS_P2;Temp;Humidity;BMP_temperature;BMP_pressure;BME280_temperature;BME280_humidity;BME280_pressure;Samples;Min_cycle;Max_cycle;Signal;HPM_P1;HPM_P2
2023/10/03 00:00:22;;;;;;;21.87;9.77;;;16.10;1.00;;;;;;5027760;28;20420;-75
2023/10/03 00:02:49;;;;;;;19.07;9.10;;;16.20;1.00;;;;;;5028331;28;20444;-76
2023/10/03 00:05:19;;;;;;;22.00;10.40;;;16.10;1.00;;;;;;5027707;28;20429;-77
2023/10/03 00:07:44;;;;;;;20.07;10.37;;;16.20;1.00;;;;;;5028124;28;20421;-75
2023/10/03 00:10:10;;;;;;;22.07;10.30;;;16.20;1.00;;;;;;5027591;28;20432;-78
2023/10/03 00:12:35;;;;;;;21.70;10.80;;;16.10;1.00;;;;;;5027913;28;20200;-76
2023/10/03 00:15:01;;;;;;;21.00;10.87;;;16.00;1.00;;;;;;5026199;28;20243;-74
2023/10/03 00:17:27;;;;;;;20.23;10.47;;;16.10;1.00;;;;;;5028175;28;20536;-78
2023/10/03 00:19:52;;;;;;;20.97;10.93;;;15.90;1.00;;;;;;5027911;28;20421;-76
2023/10/03 00:22:19;;;;;;;18.90;9.77;;;16.00;1.00;;;;;;5027457;28;20220;-76
2023/10/03 00:24:45;;;;;;;19.30;10.43;;;16.00;1.00;;;;;;5027753;28;20722;-76
2023/10/03 00:27:10;;;;;;;18.80;10.13;;;16.00;1.00;;;;;;5027137;28;20470;-77
2023/10/03 00:29:36;;;;;;;20.00;10.40;;;16.00;1.00;;;;;;5031095;28;20186;-76
2023/10/03 00:32:01;;;;;;;19.90;10.37;;;16.00;1.00;;;;;;5031512;28;20276;-76
2023/10/03 00:34:27;;;;;;;19.30;10.30;;;16.00;1.00;;;;;;5030371;28;20174;-77
2023/10/03 00:36:54;;;;;;;19.97;10.23;;;16.00;1.00;;;;;;5031471;28;20184;-78
2023/10/03 00:39:20;;;;;;;25.23;11.17;;;15.90;1.00;;;;;;5031162;28;20672;-76
2023/10/03 00:41:46;;;;;;;21.40;10.97;;;15.90;1.00;;;;;;5027364;28;20439;-78
2023/10/03 00:44:12;;;;;;;23.17;10.13;;;15.80;1.00;;;;;;5031342;28;20252;-76
2023/10/03 00:46:37;;;;;;;24.40;10.70;;;15.70;1.00;;;;;;5039190;28;20990;-76
2023/10/03 00:49:10;;;;;;;21.40;11.43;;;15.70;1.00;;;;;;5030927;28;20605;-75
2023/10/03 00:51:37;;;;;;;24.90;10.47;;;15.70;1.00;;;;;;5030996;28;20271;-76
2023/10/03 00:54:03;;;;;;;19.30;9.87;;;15.70;1.00;;;;;;5031023;28;20439;-80
2023/10/03 00:56:30;;;;;;;24.10;10.53;;;15.70;1.00;;;;;;5031733;28;20830;-77
2023/10/03 00:58:57;;;;;;;20.30;9.97;;;15.70;1.00;;;;;;5030975;28;20184;-76
2023/10/03 01:01:22;;;;;;;22.50;10.73;;;15.70;1.00;;;;;;5027216;28;20551;-78
2023/10/03 01:03:48;;;;;;;23.73;11.23;;;15.70;1.00;;;;;;5032717;28;20432;-76
2023/10/03 01:06:15;;;;;;;20.10;11.23;;;15.60;1.00;;;;;;5046509;28;20190;-76
2023/10/03 01:08:48;;;;;;;24.57;11.07;;;15.50;1.00;;;;;;5031291;28;20190;-78
2023/10/03 01:11:16;;;;;;;23.10;10.50;;;15.50;1.00;;;;;;5031301;28;20425;-78
2023/10/03 01:13:47;;;;;;;23.10;10.83;;;15.50;1.00;;;;;;5031082;28;20420;-77
2023/10/03 01:16:14;;;;;;;25.60;11.33;;;15.50;1.00;;;;;;5030136;28;20470;-76
2023/10/03 01:18:41;;;;;;;23.40;10.87;;;15.40;1.00;;;;;;5024849;28;20431;-77
2023/10/03 01:21:11;;;;;;;21.73;10.80;;;15.40;1.00;;;;;;5030447;28;20842;-75
2023/10/03 01:23:39;;;;;;;26.13;11.97;;;15.40;1.00;;;;;;5029759;28;20429;-76
2023/10/03 01:26:05;;;;;;;22.07;10.17;;;15.40;1.00;;;;;;5030297;28;20429;-74
2023/10/03 01:28:30;;;;;;;19.27;9.77;;;15.40;1.00;;;;;;5030510;28;20452;-76
2023/10/03 01:30:56;;;;;;;23.83;10.63;;;15.40;1.00;;;;;;5030267;28;20614;-77
2023/10/03 01:33:26;;;;;;;23.63;10.97;;;15.40;1.00;;;;;;5030075;28;20181;-77
2023/10/03 01:35:52;;;;;;;23.47;11.63;;;15.40;1.00;;;;;;5028861;28;20292;-80
2023/10/03 01:38:18;;;;;;;22.90;11.00;;;15.30;1.00;;;;;;5030327;28;20485;-76
2023/10/03 01:40:44;;;;;;;23.50;12.13;;;15.30;1.00;;;;;;5030106;28;20416;-77
2023/10/03 01:43:10;;;;;;;28.20;10.50;;;15.30;1.00;;;;;;5029433;28;20842;-78
2023/10/03 01:45:35;;;;;;;24.57;11.10;;;15.30;1.00;;;;;;5030197;28;20495;-78
2023/10/03 01:48:04;;;;;;;20.10;10.33;;;15.30;1.00;;;;;;5030201;28;20679;-77
2023/10/03 01:50:33;;;;;;;24.57;10.87;;;15.30;1.00;;;;;;5029947;28;20182;-76
2023/10/03 01:52:59;;;;;;;21.70;11.00;;;17.20;1.00;;;;;;5032070;28;20860;-77
2023/10/03 01:55:25;;;;;;;21.97;11.33;;;15.30;1.00;;;;;;5028365;28;20457;-78
2023/10/03 01:57:50;;;;;;;20.60;10.50;;;15.20;1.00;;;;;;5030282;28;20256;-78
2023/10/03 02:00:26;;;;;;;23.50;11.83;;;15.20;1.00;;;;;;5029925;28;20266;-76
2023/10/03 02:02:53;;;;;;;26.00;11.10;;;15.20;1.00;;;;;;5029975;28;20196;-76
2023/10/03 02:05:23;;;;;;;21.30;10.93;;;15.20;1.00;;;;;;5029509;28;20420;-76
2023/10/03 02:07:48;;;;;;;25.17;11.57;;;15.20;1.00;;;;;;5030033;28;20432;-77
2023/10/03 02:10:15;;;;;;;21.73;12.07;;;15.20;1.00;;;;;;5029978;28;20435;-76
2023/10/03 02:12:48;;;;;;;24.07;11.50;;;15.10;1.00;;;;;;5029769;28;20337;-76
2023/10/03 02:15:24;;;;;;;20.17;10.07;;;15.20;1.00;;;;;;5029407;28;20467;-76
2023/10/03 02:17:52;;;;;;;19.70;10.10;;;15.10;1.00;;;;;;5029883;28;20468;-76
2023/10/03 02:20:25;;;;;;;24.70;12.23;;;15.20;1.00;;;;;;5029349;28;20943;-76
2023/10/03 02:22:56;;;;;;;24.33;11.53;;;15.20;1.00;;;;;;5029501;28;20444;-77
2023/10/03 02:25:29;;;;;;;24.20;11.00;;;15.10;1.00;;;;;;5029073;28;20456;-77
2023/10/03 02:27:56;;;;;;;23.27;11.47;;;15.10;1.00;;;;;;5033833;28;20440;-77
2023/10/03 02:30:26;;;;;;;22.27;11.97;;;15.10;1.00;;;;;;5029161;28;20531;-76
2023/10/03 02:33:08;;;;;;;26.90;12.43;;;14.80;1.00;;;;;;5029783;28;20456;-76
2023/10/03 02:35:33;;;;;;;22.23;10.93;;;15.10;1.00;;;;;;5028956;28;20453;-76
2023/10/03 02:37:59;;;;;;;29.10;12.67;;;15.20;1.00;;;;;;5029652;28;20433;-77
2023/10/03 02:40:28;;;;;;;23.60;11.70;;;15.20;1.00;;;;;;5028879;28;20265;-77
2023/10/03 02:42:54;;;;;;;24.93;11.77;;;15.30;1.00;;;;;;5029426;28;20247;-76
2023/10/03 02:45:23;;;;;;;25.00;12.70;;;15.40;1.00;;;;;;5034151;28;20425;-76
2023/10/03 02:47:55;;;;;;;27.90;12.70;;;15.40;1.00;;;;;;5029036;28;20428;-75
2023/10/03 02:50:26;;;;;;;24.97;12.50;;;15.50;1.00;;;;;;5028852;28;20431;-77
2023/10/03 02:52:52;;;;;;;25.40;11.47;;;15.50;1.00;;;;;;5029322;28;20444;-77
2023/10/03 02:55:18;;;;;;;23.80;12.33;;;15.50;1.00;;;;;;5028792;28;20460;-79
2023/10/03 02:57:44;;;;;;;31.13;13.00;;;15.60;1.00;;;;;;5029676;28;20416;-76
2023/10/03 03:00:14;;;;;;;26.07;12.37;;;15.60;1.00;;;;;;5032149;28;20182;-75
2023/10/03 03:02:47;;;;;;;25.20;12.43;;;15.60;1.00;;;;;;5034291;28;20888;-75
2023/10/03 03:05:16;;;;;;;23.80;11.93;;;15.70;1.00;;;;;;5028544;28;20442;-76
2023/10/03 03:07:46;;;;;;;21.87;11.63;;;15.70;1.00;;;;;;5028161;28;20428;-78
2023/10/03 03:10:17;;;;;;;21.10;11.17;;;15.70;1.00;;;;;;5023625;28;20425;-77
2023/10/03 03:12:43;;;;;;;21.43;11.77;;;15.60;1.00;;;;;;5027695;28;20550;-77
2023/10/03 03:15:22;;;;;;;27.37;11.23;;;15.60;1.00;;;;;;5027009;28;20941;-76
2023/10/03 03:17:48;;;;;;;22.27;11.80;;;15.50;1.00;;;;;;5026829;28;20934;-76
2023/10/03 03:20:27;;;;;;;24.10;11.67;;;15.50;1.00;;;;;;5042688;28;20452;-76
2023/10/03 03:22:53;;;;;;;24.20;12.60;;;15.50;1.00;;;;;;5030365;28;20455;-78
2023/10/03 03:25:25;;;;;;;29.10;11.53;;;15.40;1.00;;;;;;5028446;28;20431;-75
2023/10/03 03:27:54;;;;;;;23.10;11.67;;;15.40;1.00;;;;;;5027026;28;20444;-75
2023/10/03 03:32:49;;;;;;;26.23;12.67;;;15.40;1.00;;;;;;5028584;28;20460;-78
2023/10/03 03:35:15;;;;;;;27.00;12.07;;;15.30;1.00;;;;;;5028318;28;20517;-76
2023/10/03 03:37:40;;;;;;;28.93;13.30;;;15.40;1.00;;;;;;5028507;28;20216;-76
2023/10/03 03:40:12;;;;;;;26.17;12.00;;;15.40;1.00;;;;;;5031212;28;20572;-76
2023/10/03 03:42:38;;;;;;;26.20;12.37;;;15.40;1.00;;;;;;5043452;28;20542;-76
2023/10/03 03:45:04;;;;;;;22.90;11.80;;;15.40;1.00;;;;;;5028091;28;20543;-78
2023/10/03 03:47:33;;;;;;;24.00;11.57;;;15.50;1.00;;;;;;5027899;28;20664;-76
2023/10/03 03:50:01;;;;;;;22.03;11.50;;;15.50;1.00;;;;;;5028037;28;20216;-76
2023/10/03 03:52:27;;;;;;;34.23;13.20;;;15.50;1.00;;;;;;5030869;28;20443;-77
2023/10/03 03:54:54;;;;;;;36.70;13.03;;;15.50;1.00;;;;;;5028038;28;20830;-75
2023/10/03 03:57:19;;;;;;;23.67;11.87;;;15.50;1.00;;;;;;5027365;28;20436;-76
2023/10/03 03:59:47;;;;;;;26.87;12.30;;;15.50;1.00;;;;;;5028149;28;20421;-77
2023/10/03 04:02:13;;;;;;;23.30;11.20;;;15.60;1.00;;;;;;5027826;28;20247;-79
2023/10/03 04:04:39;;;;;;;26.43;11.90;;;15.50;1.00;;;;;;5028496;28;20416;-75
2023/10/03 04:07:05;;;;;;;23.30;12.20;;;;;;;;;;5031844;28;20431;-74
2023/10/03 04:09:31;;;;;;;28.60;12.40;;;15.60;1.00;;;;;;5035760;28;20205;-76
2023/10/03 04:11:59;;;;;;;26.73;12.90;;;15.60;1.00;;;;;;5032014;28;20198;-78
2023/10/03 04:14:24;;;;;;;26.00;12.67;;;15.60;1.00;;;;;;5032906;28;20420;-76
2023/10/03 04:16:51;;;;;;;27.00;13.20;;;15.60;1.00;;;;;;5033976;28;20974;-76
2023/10/03 04:19:16;;;;;;;28.57;12.30;;;15.60;1.00;;;;;;5031438;28;20260;-75
2023/10/03 04:21:42;;;;;;;23.47;12.50;;;15.70;1.00;;;;;;5031105;28;20871;-76
2023/10/03 04:24:10;;;;;;;25.40;12.67;;;15.70;1.00;;;;;;5029723;28;20182;-77
2023/10/03 04:26:36;;;;;;;25.00;12.13;;;15.80;1.00;;;;;;5033851;28;20182;-77
2023/10/03 04:29:02;;;;;;;23.67;11.93;;;15.80;1.00;;;;;;5031759;28;20428;-75
2023/10/03 04:31:28;;;;;;;27.30;11.97;;;15.80;1.00;;;;;;5032561;28;20443;-77
2023/10/03 04:33:54;;;;;;;26.07;13.30;;;15.80;1.00;;;;;;5032032;28;20668;-75
2023/10/03 04:36:24;;;;;;;31.07;13.70;;;16.00;1.00;;;;;;5030371;28;20220;-78
2023/10/03 04:38:50;;;;;;;26.50;12.73;;;16.00;1.00;;;;;;5031652;28;20556;-75
2023/10/03 04:41:17;;;;;;;28.80;13.87;;;16.20;1.00;;;;;;5029724;28;20861;-74
2023/10/03 04:43:43;;;;;;;23.83;12.80;;;16.20;1.00;;;;;;5032280;28;20166;-77
2023/10/03 04:46:08;;;;;;;24.83;13.20;;;16.30;1.00;;;;;;5031539;28;20523;-75
2023/10/03 04:48:34;;;;;;;28.07;12.60;;;16.30;1.00;;;;;;5031018;28;20236;-76
2023/10/03 04:51:00;;;;;;;29.70;12.50;;;16.40;1.00;;;;;;5031085;28;20186;-76
2023/10/03 04:53:25;;;;;;;26.47;13.87;;;16.40;1.00;;;;;;5029715;28;20180;-77
2023/10/03 04:55:51;;;;;;;26.27;12.40;;;16.50;1.00;;;;;;5031093;28;20460;-77
2023/10/03 04:58:17;;;;;;;25.70;12.80;;;16.50;1.00;;;;;;5030990;28;20210;-76
2023/10/03 05:00:42;;;;;;;26.97;13.07;;;19.30;1.00;;;;;;5031487;28;20178;-76
2023/10/03 05:03:09;;;;;;;23.70;12.70;;;16.50;1.00;;;;;;5031164;28;20248;-75
2023/10/03 05:05:35;;;;;;;26.20;12.90;;;16.60;1.00;;;;;;5030412;28;20209;-78
2023/10/03 05:08:00;;;;;;;21.87;11.77;;;16.60;1.00;;;;;;5030656;28;20452;-76
2023/10/03 05:10:35;;;;;;;26.30;13.50;;;16.70;1.00;;;;;;5030943;28;20214;-77
2023/10/03 05:13:01;;;;;;;35.53;13.73;;;16.70;1.00;;;;;;5030988;28;20243;-75
2023/10/03 05:15:27;;;;;;;23.53;12.70;;;16.60;1.00;;;;;;5030391;28;20459;-76
2023/10/03 05:17:56;;;;;;;30.40;13.23;;;16.60;1.00;;;;;;5030171;28;20178;-77
2023/10/03 05:20:34;;;;;;;26.47;13.27;;;16.60;1.00;;;;;;5034783;28;20912;-78
2023/10/03 05:23:02;;;;;;;24.87;13.50;;;16.60;1.00;;;;;;5030833;28;20531;-77
2023/10/03 05:25:28;;;;;;;22.80;12.17;;;16.50;1.00;;;;;;5029991;28;20430;-78
2023/10/03 05:27:54;;;;;;;23.40;12.40;;;16.60;1.00;;;;;;5030260;28;20542;-76
2023/10/03 05:30:19;;;;;;;24.40;12.83;;;16.60;1.00;;;;;;5030334;28;20190;-73
2023/10/03 05:32:45;;;;;;;26.90;12.63;;;16.70;1.00;;;;;;5030812;28;20301;-76
2023/10/03 05:35:12;;;;;;;26.33;13.60;;;16.70;1.00;;;;;;5028431;28;20293;-76
2023/10/03 05:37:39;;;;;;;25.43;12.90;;;16.70;1.00;;;;;;5032998;28;20231;-75
2023/10/03 05:40:11;;;;;;;23.20;12.90;;;16.70;1.00;;;;;;5028507;28;20614;-76
2023/10/03 05:42:40;;;;;;;23.80;12.47;;;16.70;1.00;;;;;;5031271;28;20448;-76
2023/10/03 05:45:07;;;;;;;23.27;11.43;;;16.80;1.00;;;;;;5030000;28;20523;-75
2023/10/03 05:47:32;;;;;;;24.23;11.93;;;16.90;1.00;;;;;;5030162;28;20791;-76
2023/10/03 05:49:58;;;;;;;21.93;12.27;;;17.10;1.00;;;;;;5030249;28;20490;-77
2023/10/03 05:52:23;;;;;;;21.30;12.00;;;17.20;1.00;;;;;;5034889;28;20209;-75
2023/10/03 05:54:48;;;;;;;25.13;11.27;;;17.40;1.00;;;;;;5030209;28;20572;-76
2023/10/03 05:57:14;;;;;;;23.80;12.23;;;17.50;1.00;;;;;;5029970;28;20272;-74
2023/10/03 05:59:39;;;;;;;20.57;11.90;;;17.70;1.00;;;;;;5029642;28;20553;-76
2023/10/03 06:02:05;;;;;;;23.23;12.47;;;17.80;1.00;;;;;;5030090;28;20283;-76
2023/10/03 06:04:36;;;;;;;22.83;12.90;;;17.90;1.00;;;;;;5029373;28;20804;-76
2023/10/03 06:07:02;;;;;;;26.83;13.33;;;18.00;1.00;;;;;;5029792;28;20186;-76
2023/10/03 06:09:27;;;;;;;24.03;13.07;;;18.50;1.00;;;;;;5030095;28;20428;-75
2023/10/03 06:11:54;;;;;;;19.90;12.03;;;18.10;1.00;;;;;;5029877;28;20792;-76
2023/10/03 06:14:19;;;;;;;22.53;11.70;;;18.20;1.00;;;;;;5029441;28;20431;-75
2023/10/03 06:16:45;;;;;;;21.17;11.60;;;18.20;1.00;;;;;;5029531;28;20209;-76
2023/10/03 06:19:11;;;;;;;25.50;12.03;;;18.40;1.00;;;;;;5029929;28;20181;-77
2023/10/03 06:21:37;;;;;;;26.70;13.77;;;18.60;1.00;;;;;;5028759;28;20212;-77
2023/10/03 06:24:03;;;;;;;22.70;12.23;;;18.70;1.00;;;;;;5029498;28;20202;-78
2023/10/03 06:26:29;;;;;;;26.57;12.40;;;18.80;1.00;;;;;;5035499;28;20463;-76
2023/10/03 06:28:54;;;;;;;26.67;11.97;;;18.90;1.00;;;;;;5030500;28;20193;-76
2023/10/03 06:31:21;;;;;;;20.77;11.67;;;18.90;1.00;;;;;;5033316;28;20212;-76
2023/10/03 06:33:47;;;;;;;21.00;11.80;;;18.90;1.00;;;;;;5029206;28;20196;-76
2023/10/03 06:36:12;;;;;;;23.80;12.00;;;18.90;1.00;;;;;;5027475;28;20856;-76
2023/10/03 06:38:41;;;;;;;20.80;12.33;;;18.90;1.00;;;;;;5028855;28;20420;-76
2023/10/03 06:41:07;;;;;;;20.67;11.80;;;19.00;1.00;;;;;;5029328;28;20169;-76
2023/10/03 06:43:33;;;;;;;20.97;12.20;;;19.00;1.00;;;;;;5027273;28;20435;-76
2023/10/03 06:45:59;;;;;;;23.23;12.70;;;19.00;1.00;;;;;;5033659;28;20185;-76
2023/10/03 06:48:25;;;;;;;19.57;11.50;;;19.10;1.00;;;;;;5032197;28;20500;-76
2023/10/03 06:50:51;;;;;;;18.70;11.23;;;19.30;1.00;;;;;;5030964;28;20439;-77
2023/10/03 06:53:19;;;;;;;24.30;13.10;;;19.50;1.00;;;;;;5029159;28;20255;-76
2023/10/03 06:55:45;;;;;;;24.70;11.03;;;19.50;1.00;;;;;;5028392;28;20263;-76
2023/10/03 06:58:11;;;;;;;18.10;11.23;;;19.50;1.00;;;;;;5027648;28;20432;-77
2023/10/03 07:00:37;;;;;;;19.50;11.20;;;19.40;1.00;;;;;;5028467;28;20848;-76
2023/10/03 07:03:03;;;;;;;19.00;10.57;;;19.40;1.00;;;;;;5031953;28;20228;-78
2023/10/03 07:05:29;;;;;;;25.00;12.17;;;19.30;1.00;;;;;;5028835;28;20901;-76
2023/10/03 07:07:54;;;;;;;25.13;12.13;;;19.30;1.00;;;;;;5028436;28;20463;-76
2023/10/03 07:10:21;;;;;;;23.23;11.73;;;19.30;1.00;;;;;;5028562;28;20264;-76
2023/10/03 07:12:47;;;;;;;23.40;12.37;;;19.30;1.00;;;;;;5027694;28;20335;-77
2023/10/03 07:15:13;;;;;;;26.80;11.20;;;19.30;1.00;;;;;;5028663;28;20947;-75
2023/10/03 07:17:38;;;;;;;24.80;10.87;;;19.50;1.00;;;;;;5028505;28;20174;-76
2023/10/03 07:20:07;;;;;;;19.10;11.00;;;19.30;1.00;;;;;;5030908;28;20177;-76
2023/10/03 07:22:33;;;;;;;19.57;10.70;;;19.30;1.00;;;;;;5028470;28;20277;-75
2023/10/03 07:24:59;;;;;;;18.80;10.90;;;19.30;1.00;;;;;;5028335;28;20550;-75
2023/10/03 07:27:24;;;;;;;19.23;10.50;;;19.20;1.00;;;;;;5028320;28;20189;-73
2023/10/03 07:29:50;;;;;;;21.20;11.30;;;19.30;1.00;;;;;;5027700;28;20188;-74
2023/10/03 07:32:16;;;;;;;23.40;11.70;;;19.30;1.00;;;;;;5028424;28;20209;-75
2023/10/03 07:34:45;;;;;;;20.40;10.90;;;19.30;1.00;;;;;;5027579;28;20652;-73
2023/10/03 07:37:11;;;;;;;18.90;10.83;;;19.30;1.00;;;;;;5028181;28;20478;-74
2023/10/03 07:39:40;;;;;;;17.23;10.77;;;19.30;1.00;;;;;;5031461;28;20511;-74
2023/10/03 07:42:05;;;;;;;18.80;10.03;;;19.30;1.00;;;;;;5028320;28;20463;-74
2023/10/03 07:44:32;;;;;;;17.63;10.70;;;19.40;1.00;;;;;;5027346;28;20428;-75
2023/10/03 07:46:58;;;;;;;19.57;10.60;;;19.40;1.00;;;;;;5027793;28;20175;-75
2023/10/03 07:49:24;;;;;;;18.40;10.80;;;19.50;1.00;;;;;;5028058;28;20435;-76
2023/10/03 07:51:53;;;;;;;21.70;11.33;;;19.60;1.00;;;;;;5028027;28;20444;-75
2023/10/03 07:54:19;;;;;;;17.33;10.70;;;19.90;1.00;;;;;;5028096;28;20664;-75
2023/10/03 07:56:45;;;;;;;22.00;10.70;;;20.20;1.00;;;;;;5027580;28;20492;-76
2023/10/03 07:59:11;;;;;;;18.67;11.03;;;20.50;1.00;;;;;;5028010;28;20509;-77
2023/10/03 08:01:39;;;;;;;18.23;10.47;;;20.80;1.00;;;;;;5027490;28;20196;-74
2023/10/03 08:04:11;;;;;;;17.80;10.30;;;21.00;1.00;;;;;;5028338;28;20169;-75
2023/10/03 08:06:38;;;;;;;20.13;10.80;;;21.20;1.00;;;;;;5027236;28;20449;-74
2023/10/03 08:09:03;;;;;;;18.47;10.30;;;21.40;1.00;;;;;;5027758;28;20208;-74
2023/10/03 08:11:30;;;;;;;19.20;11.40;;;21.40;1.00;;;;;;5028028;28;20279;-74
2023/10/03 08:14:07;;;;;;;17.77;10.27;;;21.50;1.00;;;;;;5027849;28;20621;-76
2023/10/03 08:16:34;;;;;;;14.23;9.77;;;21.70;1.00;;;;;;5027539;28;20625;-74
2023/10/03 08:19:01;;;;;;;18.80;10.67;;;22.10;1.00;;;;;;5027681;28;20416;-74
2023/10/03 08:21:28;;;;;;;15.80;10.17;;;22.40;1.00;;;;;;5027412;28;20465;-73
2023/10/03 08:23:55;;;;;;;14.90;9.93;;;22.60;1.00;;;;;;5028450;28;20427;-75
2023/10/03 08:26:25;;;;;;;14.50;9.73;;;23.00;1.00;;;;;;5027939;28;20482;-76
2023/10/03 08:29:04;;;;;;;18.07;9.60;;;24.30;1.00;;;;;;5027638;28;20448;-76
2023/10/03 08:31:29;;;;;;;15.90;10.37;;;25.90;1.00;;;;;;5027401;28;20439;-73
2023/10/03 08:33:55;;;;;;;13.20;8.73;;;27.00;1.00;;;;;;5027357;28;20527;-74
2023/10/03 08:36:37;;;;;;;15.53;9.00;;;27.30;1.00;;;;;;5027572;28;20291;-74
2023/10/03 08:39:12;;;;;;;15.33;9.00;;;27.70;1.00;;;;;;5028028;28;20176;-76
2023/10/03 08:41:53;;;;;;;17.45;9.10;;;28.40;1.00;;;;;;5029103;28;20188;-73
2023/10/03 08:44:22;;;;;;;13.50;9.40;;;28.90;1.00;;;;;;5028066;28;20180;-72
2023/10/03 08:46:49;;;;;;;17.23;9.52;;;28.70;1.00;;;;;;5027612;28;20185;-73
2023/10/03 08:49:19;;;;;;;16.20;8.68;;;29.00;1.00;;;;;;5027368;28;20534;-72
2023/10/03 08:51:46;;;;;;;13.68;9.18;;;29.60;1.00;;;;;;5029560;28;20204;-72
2023/10/03 08:54:12;;;;;;;12.77;8.65;;;30.00;1.00;;;;;;5031649;28;20189;-72
2023/10/03 08:56:41;;;;;;;13.52;8.85;;;30.70;1.00;;;;;;5030844;28;20275;-72
2023/10/03 08:59:10;;;;;;;13.93;8.52;;;31.20;1.00;;;;;;5032240;28;20256;-74
2023/10/03 09:01:45;;;;;;;14.32;8.68;;;31.40;1.00;;;;;;5027920;28;20212;-73
2023/10/03 09:04:15;;;;;;;11.00;8.23;;;31.40;1.00;;;;;;5028330;28;20173;-77
2023/10/03 09:06:43;;;;;;;13.27;8.10;;;30.40;1.00;;;;;;5027595;28;20177;-73
2023/10/03 09:09:13;;;;;;;14.32;8.18;;;29.40;1.00;;;;;;5030619;28;20675;-74
2023/10/03 09:11:51;;;;;;;13.32;8.73;;;28.80;1.00;;;;;;5026624;28;20209;-77
2023/10/03 09:14:22;;;;;;;17.92;8.18;;;28.30;1.00;;;;;;5028066;28;20173;-74
2023/10/03 09:16:51;;;;;;;16.23;8.98;;;28.00;1.00;;;;;;5029988;28;20571;-73
2023/10/03 09:19:23;;;;;;;14.82;8.82;;;28.00;1.00;;;;;;5033242;28;20571;-73
2023/10/03 09:21:52;;;;;;;20.35;7.88;;;28.20;1.00;;;;;;5029122;28;20818;-73
2023/10/03 09:24:22;;;;;;;14.07;7.78;;;28.20;1.00;;;;;;5031477;28;20177;-72
2023/10/03 09:26:54;;;;;;;15.52;7.53;;;28.20;1.00;;;;;;5030626;28;20181;-72
2023/10/03 09:29:30;;;;;;;15.65;7.88;;;28.70;1.00;;;;;;5031524;28;20177;-74
2023/10/03 09:32:07;;;;;;;12.15;7.35;;;29.00;1.00;;;;;;5031241;28;20200;-73
2023/10/03 09:34:34;;;;;;;13.55;6.97;;;28.80;1.00;;;;;;5030998;28;20873;-73
2023/10/03 09:37:02;;;;;;;13.65;7.88;;;29.20;1.00;;;;;;5030411;28;20283;-74
2023/10/03 09:39:30;;;;;;;12.93;7.55;;;29.30;1.00;;;;;;5030678;28;20264;-74
2023/10/03 09:41:57;;;;;;;16.98;8.07;;;29.90;1.00;;;;;;5030223;28;20275;-72
2023/10/03 09:44:32;;;;;;;12.48;7.35;;;31.30;1.00;;;;;;5030867;28;20165;-73
2023/10/03 09:47:04;;;;;;;10.73;7.20;;;32.30;1.00;;;;;;5029878;28;20189;-73
2023/10/03 09:49:38;;;;;;;11.30;7.05;;;32.30;1.00;;;;;;5031126;28;20204;-72
2023/10/03 09:52:50;;;;;;;13.27;7.10;;;32.60;1.00;;;;;;5030086;28;20218;-73
2023/10/03 09:55:17;;;;;;;13.70;7.20;;;33.20;1.00;;;;;;5021897;28;20246;-74
2023/10/03 09:57:46;;;;;;;12.77;7.68;;;32.10;1.00;;;;;;5029760;28;20199;-76
2023/10/03 10:00:25;;;;;;;12.75;7.80;;;30.20;1.00;;;;;;5031052;28;20259;-74
2023/10/03 10:02:55;;;;;;;15.98;7.57;;;29.70;1.00;;;;;;5028967;28;20205;-75
2023/10/03 10:05:25;;;;;;;13.27;7.20;;;29.20;1.00;;;;;;5031045;28;20599;-75
2023/10/03 10:08:19;;;;;;;10.82;7.65;;;28.60;1.00;;;;;;5029610;28;20182;-74
2023/10/03 10:11:10;;;;;;;18.38;7.38;;;28.40;1.00;;;;;;5032876;28;20181;-73
2023/10/03 10:13:37;;;;;;;17.63;8.65;;;28.00;1.00;;;;;;5025596;28;20685;-75
2023/10/03 10:16:20;;;;;;;12.83;7.87;;;27.80;1.00;;;;;;5028915;28;20240;-74
2023/10/03 10:18:45;;;;;;;11.57;7.63;;;27.40;1.00;;;;;;5029499;28;20200;-75
2023/10/03 10:21:20;;;;;;;13.83;7.80;;;27.10;1.00;;;;;;5029122;28;20226;-75
2023/10/03 10:24:25;;;;;;;11.90;7.87;;;27.10;1.00;;;;;;5032014;28;20263;-73
2023/10/03 10:26:54;;;;;;;17.20;8.00;;;27.10;1.00;;;;;;5026234;28;20197;-74
2023/10/03 10:29:24;;;;;;;14.20;8.10;;;27.10;1.00;;;;;;5030334;28;20193;-74
2023/10/03 10:31:57;;;;;;;11.20;7.47;;;27.30;1.00;;;;;;5029077;28;20203;-74
2023/10/03 10:34:29;;;;;;;13.90;7.70;;;28.10;1.00;;;;;;5028973;28;20189;-74
2023/10/03 10:37:05;;;;;;;13.93;7.03;;;28.90;1.00;;;;;;5029046;28;20282;-74
2023/10/03 10:40:35;;;;;;;14.77;7.38;;;30.60;1.00;;;;;;5033998;28;20582;-76
2023/10/03 10:43:04;;;;;;;10.85;7.35;;;31.50;1.00;;;;;;5018937;28;20783;-74
2023/10/03 10:45:42;;;;;;;11.57;6.75;;;32.40;1.00;;;;;;5023102;28;20193;-74
2023/10/03 10:48:08;;;;;;;10.52;7.18;;;33.00;1.00;;;;;;5025037;28;20268;-74
2023/10/03 10:51:01;;;;;;;11.73;7.88;;;33.60;1.00;;;;;;5026206;28;20169;-75
2023/10/03 10:53:42;;;;;;;12.27;6.28;;;34.60;1.00;;;;;;5026964;28;20187;-75
2023/10/03 10:56:12;;;;;;;12.80;7.13;;;34.10;1.00;;;;;;5034110;28;20230;-74
2023/10/03 10:58:51;;;;;;;11.90;6.20;;;33.20;1.00;;;;;;5023085;28;20216;-76
2023/10/03 11:01:18;;;;;;;12.60;6.40;;;31.80;1.00;;;;;;5024770;28;20192;-74
2023/10/03 11:03:45;;;;;;;15.68;6.95;;;31.60;1.00;;;;;;5024114;28;20193;-75
2023/10/03 11:06:17;;;;;;;9.85;6.32;;;30.40;1.00;;;;;;5025211;28;20192;-77
2023/10/03 11:08:47;;;;;;;23.42;6.97;;;29.70;1.00;;;;;;5023288;28;20272;-74
2023/10/03 11:11:14;;;;;;;11.50;6.25;;;30.10;1.00;;;;;;5026259;28;20686;-76
2023/10/03 11:13:50;;;;;;;13.38;6.40;;;30.20;1.00;;;;;;5027457;28;20181;-75
2023/10/03 11:16:26;;;;;;;11.98;6.50;;;30.60;1.00;;;;;;5024352;28;20682;-76
2023/10/03 11:18:58;;;;;;;8.35;6.00;;;32.60;1.00;;;;;;5023694;28;20224;-74
2023/10/03 11:21:24;;;;;;;11.70;6.85;;;33.00;1.00;;;;;;5026737;28;20223;-74
2023/10/03 11:24:08;;;;;;;10.05;6.35;;;32.40;1.00;;;;;;5026101;28;20552;-75
2023/10/03 11:26:44;;;;;;;11.73;6.75;;;33.30;1.00;;;;;;5026930;28;20552;-75
2023/10/03 11:29:10;;;;;;;17.58;6.75;;;35.00;1.00;;;;;;5024654;28;20181;-75
2023/10/03 11:31:40;;;;;;;9.23;6.15;;;34.40;1.00;;;;;;5028798;28;20208;-75
2023/10/03 11:34:06;;;;;;;12.90;5.78;;;32.40;1.00;;;;;;5025463;28;20275;-75
2023/10/03 11:36:43;;;;;;;9.07;5.32;;;30.90;1.00;;;;;;5026037;28;20582;-76
2023/10/03 11:39:13;;;;;;;10.57;5.38;;;29.80;1.00;;;;;;5025812;28;20514;-75
2023/10/03 11:41:39;;;;;;;11.15;6.18;;;29.20;1.00;;;;;;5026729;28;20563;-75
2023/10/03 11:44:19;;;;;;;8.55;5.35;;;27.90;1.00;;;;;;5026439;28;20188;-76
2023/10/03 11:46:46;;;;;;;8.27;5.20;;;28.90;1.00;;;;;;5029636;28;20181;-75
2023/10/03 11:49:13;;;;;;;9.60;5.40;;;28.50;1.00;;;;;;5026357;28;20208;-77
2023/10/03 11:51:42;;;;;;;8.25;4.93;;;30.00;1.00;;;;;;5016630;28;20193;-76
2023/10/03 11:54:08;;;;;;;11.75;5.25;;;32.30;1.00;;;;;;5019384;28;20707;-78
2023/10/03 11:56:44;;;;;;;9.63;5.30;;;33.20;1.00;;;;;;5020474;28;20193;-75
2023/10/03 11:59:14;;;;;;;9.25;5.13;;;34.30;1.00;;;;;;5026314;28;20172;-76
2023/10/03 12:01:44;;;;;;;6.80;4.60;;;34.90;1.00;;;;;;5028992;28;20197;-75
2023/10/03 12:04:11;;;;;;;9.38;5.07;;;34.30;1.00;;;;;;5026972;28;20270;-77
2023/10/03 12:06:37;;;;;;;10.80;5.10;;;34.80;1.00;;;;;;5038929;28;20177;-76
2023/10/03 12:09:03;;;;;;;7.35;4.90;;;35.40;1.00;;;;;;5026272;28;20176;-75
2023/10/03 12:11:29;;;;;;;7.68;4.80;;;35.40;1.00;;;;;;5022145;28;20255;-77
2023/10/03 12:13:54;;;;;;;6.43;4.43;;;35.40;1.00;;;;;;5021968;28;20655;-77
2023/10/03 12:16:20;;;;;;;8.27;4.65;;;35.50;1.00;;;;;;5027445;28;20848;-76
2023/10/03 12:18:46;;;;;;;11.52;4.68;;;34.90;1.00;;;;;;5025101;28;20180;-76
2023/10/03 12:21:12;;;;;;;12.40;5.03;;;34.10;1.00;;;;;;5027834;28;20183;-75
2023/10/03 12:23:37;;;;;;;11.77;5.10;;;34.10;1.00;;;;;;5029001;28;20169;-76
2023/10/03 12:26:03;;;;;;;7.30;4.97;;;33.00;1.00;;;;;;5026938;28;20186;-75
2023/10/03 12:28:28;;;;;;;9.15;4.95;;;33.00;1.00;;;;;;5037313;28;20247;-74
2023/10/03 12:30:54;;;;;;;8.25;5.32;;;34.10;1.00;;;;;;5027929;28;20185;-75
2023/10/03 12:33:19;;;;;;;12.63;4.80;;;33.80;1.00;;;;;;5033260;28;20699;-75
2023/10/03 12:35:46;;;;;;;12.98;5.55;;;32.80;1.00;;;;;;5031290;28;20212;-76
2023/10/03 12:38:11;;;;;;;10.82;5.65;;;31.60;1.00;;;;;;5034315;28;20188;-75
2023/10/03 12:40:37;;;;;;;9.75;5.47;;;31.60;1.00;;;;;;5050910;28;20174;-76
2023/10/03 12:43:03;;;;;;;8.63;5.32;;;33.60;1.00;;;;;;5031350;28;20691;-75
2023/10/03 12:45:28;;;;;;;8.98;5.32;;;34.40;1.00;;;;;;5031181;28;20189;-76
2023/10/03 12:47:54;;;;;;;9.20;5.13;;;34.80;1.00;;;;;;5031322;28;20587;-75
2023/10/03 12:50:24;;;;;;;10.45;5.80;;;34.40;1.00;;;;;;5029071;28;20244;-75